Time;durP1;ratioP1;P1;durP2;ratioP2;P2;SDS_P1;SDS_P2;PMS_P1;PMS_P2;Temp;Humidity;BMP_temperature;BMP_pressure;BME280_temperature;BME280_humidity;BME280_pressure;Samples;Min_cycle;Max_cycle;Signal;HPM_P1;HPM_P2
2023/05/15 00:02:24;;;;;;;24.05;15.57;;;;;;;-146.27;100.00;83535.41;5047302;28;20017;-68
2023/05/15 00:04:49;;;;;;;24.25;15.63;;;;;;;-146.27;100.00;83495.22;5042349;28;20029;-68
2023/05/15 00:07:15;;;;;;;27.20;17.00;;;;;;;-146.27;100.00;83499.22;5041788;28;20104;-69
2023/05/15 00:09:40;;;;;;;25.98;16.48;;;;;;;-146.27;100.00;83509.28;5050530;28;20041;-68
2023/05/15 00:12:06;;;;;;;20.95;15.15;;;;;;;-146.27;100.00;83503.25;5039675;28;22244;-68
2023/05/15 00:14:31;;;;;;;22.40;15.43;;;;;;;-146.27;100.00;83465.06;5048937;28;20465;-68
2023/05/15 00:16:57;;;;;;;24.48;14.80;;;;;;;-146.27;100.00;83440.94;5034368;28;20084;-68
2023/05/15 00:19:22;;;;;;;21.15;14.77;;;;;;;-146.27;100.00;83517.31;5047408;28;20032;-67
2023/05/15 00:21:47;;;;;;;23.30;14.88;;;;;;;-146.27;100.00;83501.22;5048161;28;20020;-68
2023/05/15 00:24:13;;;;;;;24.52;14.10;;;;;;;-146.27;100.00;83495.22;5047137;28;20445;-67
2023/05/15 00:26:38;;;;;;;19.05;13.38;;;;;;;-146.27;100.00;83493.19;5032673;28;20485;-69
2023/05/15 00:29:03;;;;;;;21.13;13.60;;;;;;;-146.27;100.00;83446.97;5034749;28;20488;-70
2023/05/15 00:31:29;;;;;;;21.17;13.57;;;;;;;-146.27;100.00;83457.03;5050585;28;20029;-70
2023/05/15 00:33:54;;;;;;;20.65;14.38;;;;;;;-146.27;100.00;83509.28;5049272;28;20480;-71
2023/05/15 00:36:20;;;;;;;26.02;13.75;;;;;;;-146.27;100.00;83543.44;5035679;28;20060;-70
2023/05/15 00:38:46;;;;;;;24.05;14.35;;;;;;;-146.27;100.00;83545.44;5049942;28;20532;-70
2023/05/15 00:41:13;;;;;;;20.48;13.77;;;;;;;-146.27;100.00;83549.47;5036969;28;20040;-70
2023/05/15 00:43:40;;;;;;;18.63;14.05;;;;;;;-146.27;100.00;83523.34;5037948;28;20028;-71
2023/05/15 00:46:06;;;;;;;20.02;13.07;;;;;;;-146.27;100.00;83565.53;5050037;28;20032;-71
2023/05/15 00:48:32;;;;;;;19.15;13.85;;;;;;;-146.27;100.00;83565.53;5050850;28;20029;-71
2023/05/15 00:50:58;;;;;;;20.75;14.77;;;;;;;-146.27;100.00;83589.66;5037540;28;20083;-71
2023/05/15 00:53:26;;;;;;;23.73;14.60;;;;;;;-146.27;100.00;83541.41;5032091;28;20103;-70
2023/05/15 00:55:55;;;;;;;18.20;14.10;;;;;;;-146.27;100.00;83561.53;5032169;28;20109;-71
2023/05/15 00:58:21;;;;;;;22.92;14.52;;;;;;;-146.27;100.00;83569.56;5048135;28;20039;-71
2023/05/15 01:00:48;;;;;;;21.27;13.90;;;;;;;-146.27;100.00;83549.47;5046446;28;20021;-71
2023/05/15 01:03:13;;;;;;;25.17;14.95;;;;;;;-146.27;100.00;83569.56;5031572;28;20052;-71
2023/05/15 01:05:39;;;;;;;31.38;15.48;;;;;;;-146.27;100.00;83533.38;5031554;28;20060;-71
2023/05/15 01:08:25;;;;;;;23.42;15.85;;;;;;;-146.27;100.00;83563.53;5031502;28;20485;-70
2023/05/15 01:10:51;;;;;;;19.15;14.68;;;;;;;-146.27;100.00;83555.50;5033711;28;20052;-71
2023/05/15 01:13:20;;;;;;;28.65;17.23;;;;;;;-146.27;100.00;83553.47;5031150;28;20021;-70
2023/05/15 01:15:46;;;;;;;27.80;19.13;;;;;;;-146.27;100.00;83583.63;5035854;28;20556;-69
2023/05/15 01:18:11;;;;;;;33.35;18.85;;;;;;;-146.27;100.00;83579.59;5032587;28;20120;-71
2023/05/15 01:20:53;;;;;;;24.15;17.17;;;;;;;-146.27;100.00;83583.63;5034316;28;20017;-70
2023/05/15 01:23:31;;;;;;;32.20;18.33;;;;;;;-146.27;100.00;83597.69;5031560;28;20037;-70
2023/05/15 01:26:13;;;;;;;30.42;19.80;;;;;;;-146.27;100.00;83597.69;5035485;28;20075;-72
2023/05/15 01:28:47;;;;;;;30.88;20.13;;;;;;;-146.27;100.00;83597.69;5030897;28;20029;-71
2023/05/15 01:31:21;;;;;;;26.60;17.35;;;;;;;-146.27;100.00;83597.69;5033074;28;20450;-70
2023/05/15 01:33:53;;;;;;;28.58;19.10;;;;;;;-146.27;100.00;83613.75;5031273;28;20408;-70
2023/05/15 01:36:33;;;;;;;28.25;19.17;;;;;;;-146.27;100.00;83561.53;5031145;28;20033;-70
2023/05/15 01:39:02;;;;;;;34.67;20.88;;;;;;;-146.27;100.00;83589.66;5035836;28;20485;-71
2023/05/15 01:41:33;;;;;;;31.77;20.65;;;;;;;-146.27;100.00;83571.56;5041496;28;20385;-71
2023/05/15 01:44:06;;;;;;;26.95;19.50;;;;;;;-146.27;100.00;83563.53;5031042;28;20154;-71
2023/05/15 01:46:36;;;;;;;29.27;19.55;;;;;;;-146.27;100.00;83573.56;5042790;28;20025;-71
2023/05/15 01:49:02;;;;;;;30.50;20.48;;;;;;;-146.27;100.00;83599.69;5049042;28;20029;-71
2023/05/15 01:51:30;;;;;;;30.30;20.80;;;;;;;-146.27;100.00;83565.53;5040454;28;20586;-71
2023/05/15 01:53:58;;;;;;;33.67;18.85;;;;;;;-146.27;100.00;83613.75;5032318;28;20040;-71
2023/05/15 01:56:25;;;;;;;29.58;19.70;;;;;;;-146.27;100.00;83621.81;5037941;28;20389;-71
2023/05/15 01:58:51;;;;;;;29.13;20.77;;;;;;;-146.27;100.00;83611.75;5047064;28;20020;-71
2023/05/15 02:01:17;;;;;;;36.13;20.88;;;;;;;-146.27;100.00;83641.91;5031017;28;20355;-70
2023/05/15 02:03:44;;;;;;;31.90;20.75;;;;;;;-146.27;100.00;83629.84;5040199;28;20121;-70
2023/05/15 02:06:11;;;;;;;35.00;21.95;;;;;;;-146.27;100.00;83627.81;5048519;28;20035;-70
2023/05/15 02:08:37;;;;;;;31.45;21.20;;;;;;;-146.27;100.00;83629.84;5048949;28;20397;-70
2023/05/15 02:11:03;;;;;;;34.70;20.90;;;;;;;-146.27;100.00;83627.81;5043817;28;20049;-70
2023/05/15 02:13:30;;;;;;;33.45;21.95;;;;;;;-146.27;100.00;83643.91;5038327;28;20036;-70
2023/05/15 02:15:56;;;;;;;35.63;22.63;;;;;;;-146.27;100.00;83623.81;5047083;28;20041;-70
2023/05/15 02:18:22;;;;;;;36.72;23.20;;;;;;;-146.27;100.00;83643.91;5046942;28;20025;-70
2023/05/15 02:20:47;;;;;;;38.45;23.58;;;;;;;-146.27;100.00;83649.94;5032229;28;20104;-70
2023/05/15 02:23:12;;;;;;;35.85;22.80;;;;;;;-146.27;100.00;83625.81;5049919;28;20075;-70
2023/05/15 02:26:06;;;;;;;34.90;23.48;;;;;;;-146.27;100.00;83662.00;5049716;28;20063;-70
2023/05/15 02:29:11;;;;;;;36.42;22.27;;;;;;;-146.27;100.00;83631.84;5048146;28;20029;-70
2023/05/15 02:31:51;;;;;;;32.45;21.88;;;;;;;-146.27;100.00;83672.03;5048666;28;20045;-71
2023/05/15 02:34:37;;;;;;;39.97;23.95;;;;;;;-146.27;100.00;83651.94;5046668;28;20052;-70
2023/05/15 02:37:07;;;;;;;37.67;23.25;;;;;;;-146.27;100.00;83655.97;5038213;28;20095;-70
2023/05/15 02:39:33;;;;;;;34.20;22.98;;;;;;;-146.27;100.00;83635.88;5037294;28;20024;-70
2023/05/15 02:42:00;;;;;;;37.03;22.75;;;;;;;-146.27;100.00;83649.94;5049216;28;20029;-70
2023/05/15 02:44:26;;;;;;;33.85;22.33;;;;;;;-146.27;100.00;83666.00;5040419;28;20029;-70
2023/05/15 02:46:53;;;;;;;37.60;20.38;;;;;;;-146.27;100.00;83655.97;5046312;28;20049;-70
2023/05/15 02:49:18;;;;;;;29.90;21.65;;;;;;;-146.27;100.00;83698.16;5038510;28;20035;-70
2023/05/15 02:51:44;;;;;;;29.00;19.08;;;;;;;-146.27;100.00;83631.84;5048821;28;20037;-70
2023/05/15 02:54:10;;;;;;;33.30;20.10;;;;;;;-146.27;100.00;83668.00;5049067;28;20469;-70
2023/05/15 02:56:35;;;;;;;32.90;21.20;;;;;;;-146.27;100.00;83662.00;5048653;28;20063;-70
2023/05/15 02:59:01;;;;;;;31.00;21.15;;;;;;;-146.27;100.00;83690.13;5046648;28;20032;-70
2023/05/15 03:01:27;;;;;;;30.27;21.20;;;;;;;-146.27;100.00;83684.09;5029894;28;20026;-70
2023/05/15 03:03:52;;;;;;;28.50;19.63;;;;;;;-146.27;100.00;83712.22;5047469;28;20406;-70
2023/05/15 03:06:17;;;;;;;30.25;21.25;;;;;;;-146.27;100.00;83698.16;5047349;28;20032;-70
2023/05/15 03:08:43;;;;;;;31.77;20.52;;;;;;;-146.27;100.00;83666.00;5051181;28;20029;-70
2023/05/15 03:11:09;;;;;;;30.02;19.83;;;;;;;-146.27;100.00;83694.13;5041661;28;20048;-70
2023/05/15 03:13:34;;;;;;;32.80;20.80;;;;;;;-146.27;100.00;83662.00;5033824;28;20033;-70
2023/05/15 03:15:59;;;;;;;31.05;22.02;;;;;;;-146.27;100.00;83645.91;5053419;28;20086;-70
2023/05/15 03:18:25;;;;;;;33.33;19.95;;;;;;;-146.27;100.00;83637.88;5047173;28;20115;-71
2023/05/15 03:20:51;;;;;;;30.88;20.10;;;;;;;-146.27;100.00;83674.03;5051422;28;20032;-70
2023/05/15 03:23:17;;;;;;;33.17;20.30;;;;;;;-146.27;100.00;83651.94;5051818;28;20032;-70
2023/05/15 03:25:42;;;;;;;30.95;20.58;;;;;;;-146.27;100.00;83676.06;5041454;28;20493;-70
2023/05/15 03:28:08;;;;;;;32.72;20.88;;;;;;;-146.27;100.00;83664.00;5045296;28;20037;-70
2023/05/15 03:30:33;;;;;;;33.40;20.65;;;;;;;-146.27;100.00;83653.94;5036552;28;20427;-71
2023/05/15 03:32:59;;;;;;;29.23;20.63;;;;;;;-146.27;100.00;83623.81;5033285;28;20021;-71
2023/05/15 03:35:25;;;;;;;34.38;20.70;;;;;;;-146.27;100.00;83637.88;5040200;28;20114;-71
2023/05/15 03:37:51;;;;;;;34.78;20.73;;;;;;;-146.27;100.00;83647.91;5056914;28;20044;-71
2023/05/15 03:40:16;;;;;;;35.40;23.05;;;;;;;-146.27;100.00;83625.81;5050990;28;20037;-71
2023/05/15 03:42:41;;;;;;;36.35;23.23;;;;;;;-146.27;100.00;83625.81;5037370;28;20036;-71
2023/05/15 03:45:07;;;;;;;43.97;24.55;;;;;;;-146.27;100.00;83605.72;5041938;28;20024;-70
2023/05/15 03:47:33;;;;;;;42.83;26.02;;;;;;;-146.27;100.00;83633.84;5048068;28;20028;-71
2023/05/15 03:49:58;;;;;;;40.40;27.33;;;;;;;-146.27;100.00;83645.91;5046829;28;20037;-71
2023/05/15 03:52:23;;;;;;;39.72;25.05;;;;;;;-146.27;100.00;83637.88;5040348;28;20068;-70
2023/05/15 03:54:49;;;;;;;40.75;27.25;;;;;;;-146.27;100.00;83637.88;5041690;28;20024;-71
2023/05/15 03:57:14;;;;;;;39.60;24.50;;;;;;;-146.27;100.00;83625.81;5050841;28;20344;-71
2023/05/15 03:59:40;;;;;;;43.10;26.90;;;;;;;-146.27;100.00;83619.78;5045768;28;20053;-70
2023/05/15 04:02:05;;;;;;;45.00;26.67;;;;;;;-146.27;100.00;83631.84;5043576;28;20053;-71
2023/05/15 04:04:31;;;;;;;37.45;25.45;;;;;;;-146.27;100.00;83625.81;5042973;28;20033;-71
2023/05/15 04:06:56;;;;;;;42.58;27.98;;;;;;;-146.27;100.00;83641.91;5049063;28;20316;-71
2023/05/15 04:09:21;;;;;;;41.88;26.90;;;;;;;-146.27;100.00;83601.72;5051509;28;20051;-71
2023/05/15 04:11:47;;;;;;;40.55;25.77;;;;;;;-146.27;100.00;83627.81;5049801;28;20492;-70
2023/05/15 04:14:12;;;;;;;43.88;27.67;;;;;;;-146.27;100.00;83589.66;5045859;28;20056;-71
2023/05/15 04:16:37;;;;;;;43.90;26.55;;;;;;;-146.27;100.00;83601.72;5052375;28;20029;-70
2023/05/15 04:19:03;;;;;;;40.63;26.52;;;;;;;-146.27;100.00;83585.63;5048739;28;20100;-71
2023/05/15 04:21:28;;;;;;;42.20;27.63;;;;;;;-146.27;100.00;83625.81;5045318;28;20075;-71
2023/05/15 04:23:53;;;;;;;35.58;25.13;;;;;;;-146.27;100.00;83591.66;5032248;28;20031;-70
2023/05/15 04:26:19;;;;;;;38.90;26.42;;;;;;;-146.27;100.00;83597.69;5042662;28;20032;-70
2023/05/15 04:28:44;;;;;;;38.25;25.33;;;;;;;-146.27;100.00;83567.53;5051265;28;20056;-70
2023/05/15 04:31:10;;;;;;;40.85;25.55;;;;;;;-146.27;100.00;83617.78;5043619;28;20252;-70
2023/05/15 04:33:37;;;;;;;37.95;25.30;;;;;;;-146.27;100.00;83583.63;5036961;28;20024;-71
2023/05/15 04:36:04;;;;;;;39.72;24.20;;;;;;;-146.27;100.00;83573.56;5035316;28;20060;-70
2023/05/15 04:38:29;;;;;;;35.22;23.10;;;;;;;-146.27;100.00;83603.72;5040005;28;20025;-70
2023/05/15 04:40:55;;;;;;;36.15;22.80;;;;;;;-146.27;100.00;83609.75;5049902;28;20044;-71
2023/05/15 04:43:20;;;;;;;34.97;22.85;;;;;;;-146.27;100.00;83573.56;5047277;28;20032;-70
2023/05/15 04:45:45;;;;;;;36.10;22.58;;;;;;;-146.27;100.00;83573.56;5049500;28;20078;-70
2023/05/15 04:48:11;;;;;;;28.85;21.20;;;;;;;-146.27;100.00;83545.44;5047845;28;20024;-70
2023/05/15 04:50:36;;;;;;;27.35;19.63;;;;;;;-146.27;100.00;83587.63;5044261;28;20028;-71
2023/05/15 04:53:02;;;;;;;24.52;18.25;;;;;;;-146.27;100.00;83567.53;5045423;28;20024;-71
2023/05/15 04:55:27;;;;;;;32.95;19.80;;;;;;;-146.27;100.00;83517.31;5051394;28;20032;-69
2023/05/15 04:57:53;;;;;;;34.40;20.65;;;;;;;-146.27;100.00;83553.47;5051828;28;20029;-70
2023/05/15 05:00:18;;;;;;;29.50;18.70;;;;;;;-146.27;100.00;83521.34;5035682;28;20050;-70
2023/05/15 05:02:44;;;;;;;32.35;20.50;;;;;;;-146.27;100.00;83497.22;5041428;28;20094;-71
2023/05/15 05:05:09;;;;;;;29.50;17.83;;;;;;;-146.27;100.00;83521.34;5030462;28;20030;-71
2023/05/15 05:07:35;;;;;;;27.10;19.20;;;;;;;-146.27;100.00;83515.31;5031719;28;20025;-71
2023/05/15 05:10:02;;;;;;;27.92;18.83;;;;;;;-146.27;100.00;83469.09;5034284;28;20045;-71
2023/05/15 05:12:27;;;;;;;23.23;16.88;;;;;;;-146.27;100.00;83493.19;5030765;28;20033;-71
2023/05/15 05:14:54;;;;;;;31.17;17.98;;;;;;;-146.27;100.00;83481.16;5036810;28;20033;-71
2023/05/15 05:17:19;;;;;;;26.13;17.90;;;;;;;-146.27;100.00;83457.03;5031113;28;20032;-70
2023/05/15 05:19:45;;;;;;;31.70;19.23;;;;;;;-146.27;100.00;83473.09;5040118;28;20369;-70
2023/05/15 05:22:10;;;;;;;25.52;17.98;;;;;;;-146.27;100.00;83469.09;5040139;28;20412;-71
2023/05/15 05:24:36;;;;;;;26.30;17.20;;;;;;;-146.27;100.00;83449.00;5048492;28;20396;-70
2023/05/15 05:27:02;;;;;;;30.90;18.95;;;;;;;-146.27;100.00;83481.16;5050460;28;20482;-70
2023/05/15 05:29:29;;;;;;;29.30;18.63;;;;;;;-146.27;100.00;83465.06;5045916;28;20166;-71
2023/05/15 05:31:54;;;;;;;31.77;19.75;;;;;;;-146.27;100.00;83457.03;5037068;28;20144;-70
2023/05/15 05:34:20;;;;;;;25.58;17.60;;;;;;;-146.27;100.00;83457.03;5041415;28;20041;-70
2023/05/15 05:36:45;;;;;;;28.83;18.70;;;;;;;-146.27;100.00;83465.06;5044393;28;20091;-72
2023/05/15 05:39:11;;;;;;;27.65;18.75;;;;;;;-146.27;100.00;83465.06;5051991;28;20536;-70
2023/05/15 05:41:36;;;;;;;29.92;19.05;;;;;;;-146.27;100.00;83392.72;5045790;28;20032;-69
2023/05/15 05:44:01;;;;;;;27.52;17.75;;;;;;;-146.27;100.00;83412.81;5050973;28;20025;-71
2023/05/15 05:46:27;;;;;;;29.40;19.30;;;;;;;-146.27;100.00;83428.91;5050088;28;20030;-71
2023/05/15 05:48:52;;;;;;;23.67;18.50;;;;;;;-146.27;100.00;83372.63;5045127;28;20382;-72
2023/05/15 05:51:18;;;;;;;24.60;18.58;;;;;;;-146.27;100.00;83408.81;5040522;28;20029;-71
2023/05/15 05:53:43;;;;;;;27.13;19.13;;;;;;;-146.27;100.00;83404.78;5051058;28;20033;-71
2023/05/15 05:56:09;;;;;;;28.40;19.58;;;;;;;-146.27;100.00;83404.78;5038979;28;20042;-72
2023/05/15 05:58:34;;;;;;;27.33;19.65;;;;;;;-146.27;100.00;83380.69;5038289;28;20358;-71
2023/05/15 06:01:00;;;;;;;29.10;20.70;;;;;;;-146.27;100.00;83392.72;5046753;28;20033;-71
2023/05/15 06:03:26;;;;;;;29.38;20.83;;;;;;;-146.27;100.00;83360.59;5036645;28;20570;-71
2023/05/15 06:05:53;;;;;;;31.00;22.05;;;;;;;-146.27;100.00;83392.72;5042678;28;20025;-71
2023/05/15 06:08:19;;;;;;;29.15;21.38;;;;;;;-146.27;100.00;83364.59;5033034;28;20380;-72
2023/05/15 06:10:44;;;;;;;27.63;19.67;;;;;;;-146.27;100.00;83340.50;5044111;28;20055;-71
2023/05/15 06:13:10;;;;;;;28.63;20.13;;;;;;;-146.27;100.00;83364.59;5053655;28;20080;-72
2023/05/15 06:15:36;;;;;;;33.95;21.50;;;;;;;-146.27;100.00;83334.47;5055528;28;20082;-72
2023/05/15 06:18:01;;;;;;;28.17;19.20;;;;;;;-146.27;100.00;83360.59;5057271;28;20025;-72
2023/05/15 06:20:27;;;;;;;29.13;19.73;;;;;;;-146.27;100.00;83336.47;5045303;28;20104;-72
2023/05/15 06:22:52;;;;;;;30.33;20.77;;;;;;;-146.27;100.00;83308.34;5047159;28;20907;-72
2023/05/15 06:25:18;;;;;;;28.17;20.00;;;;;;;-146.27;100.00;83330.44;5038045;28;20037;-72
2023/05/15 06:27:43;;;;;;;33.35;19.52;;;;;;;-146.27;100.00;83300.31;5037121;28;20060;-72
2023/05/15 06:30:09;;;;;;;30.95;19.50;;;;;;;-146.27;100.00;83314.38;5046408;28;20050;-73
2023/05/15 06:32:35;;;;;;;29.35;19.52;;;;;;;-146.27;100.00;83344.50;5044735;28;20052;-74
2023/05/15 06:35:01;;;;;;;31.10;19.90;;;;;;;-146.27;100.00;83316.38;5049776;28;20017;-72
2023/05/15 06:37:27;;;;;;;28.33;19.55;;;;;;;-146.27;100.00;83302.31;5050247;28;20028;-73
2023/05/15 06:39:53;;;;;;;28.50;19.27;;;;;;;-146.27;100.00;83316.38;5046363;28;20064;-73
2023/05/15 06:42:18;;;;;;;27.02;18.38;;;;;;;-146.27;100.00;83272.19;5040662;28;20049;-72
2023/05/15 06:44:44;;;;;;;28.20;19.23;;;;;;;-146.27;100.00;83276.19;5048303;28;20366;-72
2023/05/15 06:47:09;;;;;;;29.58;20.95;;;;;;;-146.27;100.00;83292.28;5049895;28;20128;-71
2023/05/15 06:49:34;;;;;;;33.63;21.55;;;;;;;-146.27;100.00;83276.19;5058141;28;20024;-70
2023/05/15 06:52:00;;;;;;;29.63;21.48;;;;;;;-146.27;100.00;83244.03;5048023;28;20075;-70
2023/05/15 06:54:25;;;;;;;37.03;22.90;;;;;;;-146.27;100.00;83246.06;5047469;28;20024;-70
2023/05/15 06:56:50;;;;;;;32.72;22.00;;;;;;;-146.27;100.00;83256.09;5051553;28;20052;-71
2023/05/15 06:59:15;;;;;;;36.90;23.55;;;;;;;-146.27;100.00;83238.03;5039161;28;20032;-72
2023/05/15 07:01:41;;;;;;;37.42;23.70;;;;;;;-146.27;100.00;83252.09;5046529;28;20021;-72
2023/05/15 07:04:06;;;;;;;34.30;23.88;;;;;;;-146.27;100.00;83227.97;5035778;28;20033;-72
2023/05/15 07:06:32;;;;;;;38.45;23.42;;;;;;;-146.27;100.00;83236.00;5031761;28;20060;-72
2023/05/15 07:08:58;;;;;;;33.95;22.90;;;;;;;-146.27;100.00;83179.75;5051053;28;20290;-73
2023/05/15 07:11:24;;;;;;;32.95;22.35;;;;;;;-146.27;100.00;83219.94;5049786;28;20102;-71
2023/05/15 07:13:50;;;;;;;35.30;22.88;;;;;;;-146.27;100.00;83229.97;5045308;28;20029;-71
2023/05/15 07:16:16;;;;;;;30.83;22.05;;;;;;;-146.27;100.00;83223.94;5044761;28;20044;-73
2023/05/15 07:18:41;;;;;;;31.38;22.15;;;;;;;-146.27;100.00;83244.03;5054320;28;20083;-72
2023/05/15 07:21:06;;;;;;;35.38;24.38;;;;;;;-146.27;100.00;83227.97;5048325;28;20024;-72
2023/05/15 07:23:31;;;;;;;32.70;21.60;;;;;;;-146.27;100.00;83189.78;5049776;28;20365;-72
2023/05/15 07:25:57;;;;;;;32.95;22.90;;;;;;;-146.27;100.00;83252.09;5036370;28;20033;-72
2023/05/15 07:28:22;;;;;;;36.85;25.90;;;;;;;-146.27;100.00;83252.09;5049753;28;20021;-73
2023/05/15 07:30:48;;;;;;;33.80;23.80;;;;;;;-146.27;100.00;83215.91;5049738;28;20036;-73
2023/05/15 07:33:13;;;;;;;34.83;23.42;;;;;;;-146.27;100.00;83244.03;5049498;28;20021;-71
2023/05/15 07:35:38;;;;;;;38.35;24.15;;;;;;;-146.27;100.00;83276.19;5040880;28;20141;-71
2023/05/15 07:38:04;;;;;;;38.88;25.35;;;;;;;-146.27;100.00;83270.16;5038323;28;20401;-72
2023/05/15 07:40:30;;;;;;;37.67;24.55;;;;;;;-146.27;100.00;83270.16;5039990;28;20021;-71
2023/05/15 07:42:55;;;;;;;39.75;24.20;;;;;;;-146.27;100.00;83256.09;5030666;28;20103;-72
2023/05/15 07:45:21;;;;;;;34.50;23.08;;;;;;;-146.27;100.00;83284.22;5038138;28;20025;-72
2023/05/15 07:47:48;;;;;;;36.63;23.50;;;;;;;-146.27;100.00;83276.19;5046896;28;20033;-72
2023/05/15 07:50:14;;;;;;;40.03;25.05;;;;;;;-146.27;100.00;83242.03;5028582;28;20375;-71
2023/05/15 07:52:40;;;;;;;39.40;24.33;;;;;;;-146.27;100.00;83292.28;5029862;28;20051;-71
2023/05/15 07:55:06;;;;;;;38.45;24.45;;;;;;;-146.27;100.00;83260.13;5038521;28;20032;-71
2023/05/15 07:57:31;;;;;;;42.67;25.30;;;;;;;-146.27;100.00;83258.13;5052845;28;20029;-71
2023/05/15 07:59:57;;;;;;;36.60;23.45;;;;;;;-146.27;100.00;83244.03;5040839;28;20028;-73
2023/05/15 08:02:22;;;;;;;37.67;25.08;;;;;;;-146.27;100.00;83225.97;5031921;28;20513;-72
2023/05/15 08:04:48;;;;;;;41.78;24.02;;;;;;;-146.27;100.00;83203.88;5033055;28;20029;-72
2023/05/15 08:07:13;;;;;;;42.42;25.77;;;;;;;-146.27;100.00;83236.00;5032935;28;20018;-72
2023/05/15 08:09:38;;;;;;;41.92;26.25;;;;;;;-146.27;100.00;83215.91;5033161;28;20091;-72
2023/05/15 08:12:19;;;;;;;43.03;27.33;;;;;;;-146.27;100.00;83240.03;5049610;28;20484;-72
2023/05/15 08:14:45;;;;;;;47.47;26.60;;;;;;;-146.27;100.00;83193.81;5052924;28;20021;-72
2023/05/15 08:17:11;;;;;;;41.65;26.80;;;;;;;-146.27;100.00;83201.84;5051462;28;20029;-72
2023/05/15 08:19:36;;;;;;;41.03;25.08;;;;;;;-146.27;100.00;83227.97;5050692;28;20033;-72
2023/05/15 08:22:01;;;;;;;44.78;26.58;;;;;;;-146.27;100.00;83225.97;5050830;28;20035;-72
2023/05/15 08:24:27;;;;;;;47.03;27.73;;;;;;;-146.27;100.00;83223.94;5052518;28;20024;-72
2023/05/15 08:26:52;;;;;;;47.55;28.13;;;;;;;-146.27;100.00;83211.91;5052533;28;20013;-71
2023/05/15 08:29:17;;;;;;;40.13;25.15;;;;;;;-146.27;100.00;83163.69;5039930;28;20075;-72
2023/05/15 08:31:43;;;;;;;48.00;27.50;;;;;;;-146.27;100.00;83191.81;5034121;28;20025;-71
2023/05/15 08:34:08;;;;;;;47.35;27.55;;;;;;;-146.27;100.00;83213.91;5052400;28;20108;-71
2023/05/15 08:36:33;;;;;;;54.53;29.33;;;;;;;-146.27;100.00;83189.78;5052296;28;20029;-71
2023/05/15 08:38:59;;;;;;;52.88;27.60;;;;;;;-146.27;100.00;83211.91;5043030;28;20053;-72
2023/05/15 08:41:32;;;;;;;55.47;29.67;;;;;;;-146.27;100.00;83260.13;5031977;28;20032;-72
2023/05/15 08:44:01;;;;;;;55.28;30.42;;;;;;;-146.27;100.00;83225.97;5032313;28;20053;-72
2023/05/15 08:46:27;;;;;;;56.13;29.65;;;;;;;-146.27;100.00;83268.16;5064434;28;20032;-72
2023/05/15 08:48:55;;;;;;;57.58;30.75;;;;;;;-146.27;100.00;83199.84;5039519;28;20025;-70
2023/05/15 08:51:21;;;;;;;61.00;33.17;;;;;;;-146.27;100.00;83221.94;5051826;28;20112;-70
2023/05/15 08:53:47;;;;;;;52.80;29.63;;;;;;;-146.27;100.00;83234.00;5050109;28;20029;-71
2023/05/15 08:56:13;;;;;;;60.67;30.50;;;;;;;-146.27;100.00;83211.91;5051979;28;20036;-71
2023/05/15 08:58:38;;;;;;;62.65;32.03;;;;;;;-146.27;100.00;83244.03;5050681;28;20020;-70
2023/05/15 09:01:05;;;;;;;58.78;30.55;;;;;;;-146.27;100.00;83187.78;5051711;28;20064;-72
2023/05/15 09:03:30;;;;;;;59.03;28.73;;;;;;;-146.27;100.00;83238.03;5050273;28;20025;-72
2023/05/15 09:05:57;;;;;;;57.47;28.08;;;;;;;-146.27;100.00;83260.13;5049826;28;20025;-71
2023/05/15 09:08:24;;;;;;;58.75;29.95;;;;;;;-146.27;100.00;83244.03;5050989;28;20021;-71
2023/05/15 09:10:52;;;;;;;51.03;27.58;;;;;;;-146.27;100.00;83155.63;5050114;28;20508;-71
2023/05/15 09:13:17;;;;;;;52.90;27.80;;;;;;;-146.27;100.00;83232.00;5045258;28;20032;-71
2023/05/15 09:15:45;;;;;;;55.00;29.20;;;;;;;-146.27;100.00;83227.97;5032590;28;20021;-71
2023/05/15 09:18:12;;;;;;;51.67;27.52;;;;;;;-146.27;100.00;83211.91;5031388;28;20045;-71
2023/05/15 09:20:37;;;;;;;54.97;29.13;;;;;;;-146.27;100.00;83147.59;5036209;28;20024;-71
2023/05/15 09:23:20;;;;;;;49.67;27.55;;;;;;;-146.27;100.00;83244.03;5049732;28;20068;-72
2023/05/15 09:25:45;;;;;;;51.45;26.83;;;;;;;-146.27;100.00;83131.53;5031516;28;20025;-72
2023/05/15 09:28:29;;;;;;;51.05;25.73;;;;;;;-146.27;100.00;83121.47;5031414;28;20025;-71
2023/05/15 09:31:02;;;;;;;40.40;24.60;;;;;;;-146.27;100.00;83091.34;5038420;28;20017;-72
2023/05/15 09:33:46;;;;;;;40.97;23.35;;;;;;;-146.27;100.00;83099.38;5032362;28;20382;-72
2023/05/15 09:36:20;;;;;;;38.22;21.45;;;;;;;-146.27;100.00;83083.31;5031482;28;20485;-70
2023/05/15 09:38:47;;;;;;;36.13;21.10;;;;;;;-146.27;100.00;83111.44;5031532;28;20488;-71
2023/05/15 09:41:12;;;;;;;31.88;20.65;;;;;;;-146.27;100.00;83063.22;5034456;28;20021;-73
2023/05/15 09:43:39;;;;;;;32.58;19.58;;;;;;;-146.27;100.00;83073.25;5048710;28;20496;-72
2023/05/15 09:46:07;;;;;;;35.22;21.55;;;;;;;-146.27;100.00;83053.16;5050630;28;20070;-71
2023/05/15 09:48:33;;;;;;;30.10;19.15;;;;;;;-146.27;100.00;83037.09;5048218;28;20017;-72
2023/05/15 09:51:00;;;;;;;31.00;19.25;;;;;;;-146.27;100.00;83025.03;5039420;28;20087;-71
2023/05/15 09:53:27;;;;;;;28.23;18.23;;;;;;;-146.27;100.00;83015.00;5049390;28;20981;-71
2023/05/15 09:55:53;;;;;;;24.58;17.42;;;;;;;-146.27;100.00;83006.97;5051258;28;20029;-72
2023/05/15 09:58:19;;;;;;;30.20;19.10;;;;;;;-146.27;100.00;83097.38;5046911;28;20029;-72
2023/05/15 10:00:46;;;;;;;34.20;20.23;;;;;;;-146.27;100.00;83000.94;5051023;28;20085;-72
2023/05/15 10:03:12;;;;;;;32.55;18.67;;;;;;;-146.27;100.00;83023.03;5058873;28;20028;-73
2023/05/15 10:05:38;;;;;;;29.65;18.67;;;;;;;-146.27;100.00;83019.03;5056787;28;20026;-71
2023/05/15 10:08:04;;;;;;;27.55;18.27;;;;;;;-146.27;100.00;83010.97;5047753;28;20025;-72
2023/05/15 10:10:30;;;;;;;29.00;17.55;;;;;;;-146.27;100.00;82972.81;5038858;28;20057;-72
2023/05/15 10:13:00;;;;;;;28.50;17.25;;;;;;;-146.27;100.00;82986.88;5051919;28;20029;-73
2023/05/15 10:15:26;;;;;;;26.08;17.98;;;;;;;-146.27;99.91;82994.91;5040553;28;20026;-72
2023/05/15 10:17:52;;;;;;;25.48;15.73;;;;;;;-146.27;99.75;82914.53;5036659;28;20167;-72
2023/05/15 10:20:19;;;;;;;21.90;14.57;;;;;;;-146.27;100.00;82974.81;5046788;28;20129;-71
2023/05/15 10:22:50;;;;;;;21.83;14.45;;;;;;;-146.27;99.11;82952.72;5051419;28;20120;-71
2023/05/15 10:25:20;;;;;;;19.05;13.77;;;;;;;-146.27;98.60;82934.63;5044294;28;20082;-73
2023/05/15 10:27:46;;;;;;;18.13;12.77;;;;;;;-146.27;97.52;82980.84;5039153;28;20355;-71
2023/05/15 10:30:15;;;;;;;19.48;12.02;;;;;;;-146.27;97.44;82958.75;5041448;28;20032;-72
2023/05/15 10:32:42;;;;;;;13.55;8.25;;;;;;;-146.27;97.14;82914.53;5032440;28;20064;-73
2023/05/15 10:35:09;;;;;;;14.85;7.18;;;;;;;-146.27;97.05;82860.31;5039101;28;20021;-72
2023/05/15 10:37:35;;;;;;;10.88;6.50;;;;;;;-146.27;96.21;82886.41;5052039;28;20025;-71
2023/05/15 10:40:02;;;;;;;12.65;6.68;;;;;;;-146.27;95.48;82890.44;5041823;28;20050;-74
2023/05/15 10:42:28;;;;;;;11.73;5.10;;;;;;;-146.27;93.38;82914.53;5050004;28;20401;-74
2023/05/15 10:44:58;;;;;;;10.02;5.03;;;;;;;-146.27;94.02;82874.38;5041407;28;20060;-71
2023/05/15 10:47:25;;;;;;;9.55;4.97;;;;;;;-146.27;93.78;82896.47;5040810;28;20036;-74
2023/05/15 10:49:50;;;;;;;8.38;4.88;;;;;;;-146.27;94.18;82878.38;5033484;28;20029;-73
2023/05/15 10:52:16;;;;;;;6.80;4.05;;;;;;;-146.27;93.80;82906.50;5034557;28;20036;-73
2023/05/15 10:54:41;;;;;;;7.10;4.57;;;;;;;-146.27;95.39;82874.38;5030254;28;20067;-72